Alpine, CA (91901)

8:53 PM PST on February 23, 2018 (GMT -0800)
MJVRSD | | Change Station
Active Advisory: Frost Advisory

Elev 2830 ft 32.78 °N, 116.67 °W | Updated 19 minutes ago

Clear
Clear
33.0 °F
Feels Like 33.0 °F
N
3.0
Wind Variable Wind from NNE
Gusts 5.0 mph

Today
High -- | Low -- °F
--% Chance of Precip.
Yesterday
High -- | Low -- °F
Precip. -- in
Pressure 30.25 in
Visibility 10.0 miles
Clouds Clear
Dew Point 24.0 °F
Humidity 70%
Rainfall 0.03 in
Snow Depth Not available.
6:21 AM 5:39 PM
First Quarter, 60% visible
METAR KSEE 240435Z AUTO 29004KT 10SM CLR 06/M00 A3025 RMK AO2
Pressure 30.25 in
Visibility 10.0 miles
Clouds Clear
Dew Point 24.0 °F
Humidity 70%
Rainfall 0.03 in
Snow Depth Not available.
6:21 AM 5:39 PM
First Quarter, 60% visible
METAR KSEE 240435Z AUTO 29004KT 10SM CLR 06/M00 A3025 RMK AO2

Get Your Daily Forecast Email!

Thanks for signing up!

Be on the lookout for a verification email in your inbox.

You'll start receiving severe weather alerts in your inbox..

×

10-Day Weather Forecast

Almanac

Astronomy

Feb. 23, 2018 Rise Set
Actual Time
Civil Twilight
Nautical Twilight
Astronomical Twilight
Moon
Length of Visible Light
Length of Day
Tomorrow will be .
, % of the Moon is Illuminated

Today's Extremes

State Highs State Lows

Community

WunderPhotos

Category 6

Welcome to Category 6. This is the collective home for Weather Underground's featured writeups by Dr. Jeff Masters (right), Bob Henson (left), Chris Burt, and other regular contributors.

Nearby

Air Quality

  Air Quality AQ Index Pollutant
Not available.

Snow Depth

Station Depth Elevation

Earthquake Activity

City Distance Mag. Time & Date
Minimum magnitude displayed is 2.5.

Coastal Water Temperatures

Place Temperature

Stations

Nearby Weather Stations

Station Location Temp. Windchill Dew Point Humidity Wind Precip. Elev Updated Type
                   

Watches & Warnings

Frost Advisory
Issued: 1:04 PM PST Feb. 23, 2018 – National Weather Service

... Frost advisory in effect from 10 PM this evening to 8 am PST
Saturday...

The National Weather Service in San Diego has issued a frost
advisory... which is in effect from 10 PM this evening to 8 am PST
Saturday.

* Location... much of the San Diego County valleys and the western
portion of the San Gorgonio Pass.

* Duration... several hours of temperatures near freezing.

* Temperature... 33 to 36 degrees.

* Impacts... plants and other sensitive vegetation may be damaged
if left unprotected.

Precautionary/preparedness actions...

A frost advisory means that widespread frost is expected.
Sensitive outdoor plants may be killed if left uncovered.



Harrison